Terminal Aerodrome Forecast
Issued by NWS

Home | Current Version | Previous Version | Text Only | Print | Product List | Glossary Off
Versions: 1 2 3 4 5 6 7 8 9 10 11 12 13 14 15 16 17 18 19 20 21 22 23 24 25 26 27 28 29 30 31 32

000
FTUS43 KABR 180400 AAA
TAFATY
TAF AMD
KATY 180413Z 1804/1824 VRB06KT P6SM SKC
     FM180600 15006KT P6SM OVC070
     FM181800 17008KT P6SM OVC025=

USA.gov is the U.S. government's official web portal to all federal, state and local government web resources and services.